Time;durP1;ratioP1;P1;durP2;ratioP2;P2;SDS_P1;SDS_P2;PMS_P1;PMS_P2;Temp;Humidity;BMP_temperature;BMP_pressure;BME280_temperature;BME280_humidity;BME280_pressure;Samples;Min_cycle;Max_cycle;Signal;HPM_P1;HPM_P2
2022/06/07 00:02:14;;;;;;;15.10;4.67;;;;;;;11.37;100.00;101061.19;5041490;28;20055;-83
2022/06/07 00:04:41;;;;;;;10.02;4.75;;;;;;;11.12;100.00;101050.69;5046868;28;20049;-83
2022/06/07 00:07:10;;;;;;;11.98;4.90;;;;;;;11.20;100.00;101048.66;5047496;28;20501;-83
2022/06/07 00:09:37;;;;;;;9.55;4.25;;;;;;;11.35;100.00;101068.22;5047822;28;20050;-82
2022/06/07 00:12:04;;;;;;;10.43;4.70;;;;;;;11.30;100.00;101051.81;5041502;28;20712;-83
2022/06/07 00:14:32;;;;;;;10.32;4.70;;;;;;;11.13;100.00;101070.75;5043012;28;20049;-82
2022/06/07 00:16:59;;;;;;;13.07;5.38;;;;;;;10.54;100.00;100978.44;5044035;28;20051;-82
2022/06/07 00:19:26;;;;;;;12.07;5.30;;;;;;;10.75;100.00;101020.53;5042476;28;20053;-83
2022/06/07 00:21:53;;;;;;;14.68;5.07;;;;;;;11.08;100.00;101030.75;5045818;28;20044;-82
2022/06/07 00:24:19;;;;;;;12.82;5.22;;;;;;;10.98;100.00;101030.22;5043737;28;20054;-83
2022/06/07 00:26:46;;;;;;;11.05;4.85;;;;;;;11.10;100.00;101039.41;5040657;28;20080;-82
2022/06/07 00:29:13;;;;;;;12.65;6.00;;;;;;;11.04;100.00;101045.72;5040996;28;20057;-83
2022/06/07 00:31:41;;;;;;;12.30;5.05;;;;;;;11.10;100.00;101048.13;5045284;28;20080;-82
2022/06/07 00:34:09;;;;;;;10.93;4.75;;;;;;;10.98;100.00;101043.31;5047613;28;20055;-82
2022/06/07 00:36:36;;;;;;;12.80;5.72;;;;;;;11.13;100.00;101057.63;5043686;28;20534;-82
2022/06/07 00:39:04;;;;;;;10.98;5.03;;;;;;;11.05;100.00;101033.47;5044563;28;20128;-82
2022/06/07 00:41:31;;;;;;;9.35;3.88;;;;;;;11.25;100.00;101053.75;5044922;28;20509;-82
2022/06/07 00:44:30;;;;;;;12.20;4.05;;;;;;;10.99;100.00;101034.53;5043950;28;20081;-82
2022/06/07 00:47:01;;;;;;;12.38;5.28;;;;;;;11.03;100.00;101051.88;5024553;28;20048;-82
2022/06/07 00:49:50;;;;;;;9.68;4.63;;;;;;;11.33;100.00;101047.31;5040681;28;20454;-81
2022/06/07 00:52:20;;;;;;;10.18;4.40;;;;;;;11.25;100.00;101049.34;5057670;28;20057;-82
2022/06/07 00:54:47;;;;;;;14.07;5.63;;;;;;;11.08;100.00;101052.53;5056878;28;20435;-82
2022/06/07 00:57:15;;;;;;;12.43;5.45;;;;;;;11.12;100.00;101059.41;5044709;28;20057;-82
2022/06/07 00:59:42;;;;;;;11.57;4.93;;;;;;;10.88;100.00;101010.47;5041224;28;20064;-82
2022/06/07 01:02:09;;;;;;;9.88;4.50;;;;;;;10.98;100.00;101025.81;5041714;28;20053;-82
2022/06/07 01:04:36;;;;;;;11.35;4.57;;;;;;;10.90;100.00;100992.94;5043619;28;20128;-82
2022/06/07 01:12:34;;;;;;;14.38;4.95;;;;;;;10.87;100.00;101006.13;5048136;28;20487;-81
2022/06/07 01:15:03;;;;;;;21.02;5.85;;;;;;;10.75;100.00;101024.00;5049363;28;20064;-82
2022/06/07 01:17:29;;;;;;;13.18;5.30;;;;;;;10.95;100.00;101025.91;5043417;28;20064;-82
2022/06/07 01:19:56;;;;;;;9.05;4.00;;;;;;;10.63;100.00;100965.03;5042649;28;20041;-82
2022/06/07 01:22:23;;;;;;;17.75;6.25;;;;;;;10.64;100.00;100986.81;5045567;28;20049;-82
2022/06/07 01:24:50;;;;;;;11.32;5.10;;;;;;;10.83;100.00;101010.63;5042342;28;20052;-82
2022/06/07 01:27:17;;;;;;;12.05;5.35;;;;;;;10.56;100.00;100974.00;5043301;28;20056;-82
2022/06/07 01:29:44;;;;;;;14.00;5.53;;;;;;;10.90;100.00;101019.13;5044644;28;20572;-82
2022/06/07 01:32:11;;;;;;;12.40;6.15;;;;;;;10.66;100.00;100990.25;5044032;28;20059;-82
2022/06/07 01:34:42;;;;;;;11.32;4.88;;;;;;;11.00;100.00;101017.91;5061193;28;20052;-83
2022/06/07 01:37:15;;;;;;;18.30;5.47;;;;;;;10.80;100.00;101001.13;5048238;28;20496;-83
2022/06/07 01:42:27;;;;;;;11.85;6.00;;;;;;;10.78;100.00;101010.81;5047068;28;20483;-82
2022/06/07 01:44:54;;;;;;;14.93;5.55;;;;;;;10.82;100.00;101025.50;5044306;28;20053;-82
2022/06/07 01:47:24;;;;;;;11.15;5.10;;;;;;;10.82;100.00;101019.41;5045342;28;20479;-82
2022/06/07 01:49:52;;;;;;;13.75;4.97;;;;;;;10.81;100.00;101018.53;5046299;28;20071;-82
2022/06/07 01:52:22;;;;;;;11.65;4.90;;;;;;;10.76;100.00;101014.38;5045571;28;20056;-83
2022/06/07 01:54:51;;;;;;;10.50;3.88;;;;;;;10.96;100.00;100998.81;5049855;28;20386;-82
2022/06/07 01:57:22;;;;;;;12.13;5.13;;;;;;;10.93;100.00;101016.41;5047130;28;20049;-82
2022/06/07 01:59:49;;;;;;;14.80;4.63;;;;;;;10.88;100.00;100994.75;5044732;28;20044;-82
2022/06/07 02:02:17;;;;;;;12.38;4.10;;;;;;;11.01;100.00;101011.75;5045099;28;20049;-82
2022/06/07 02:04:44;;;;;;;11.35;5.43;;;;;;;10.86;100.00;101017.53;5053079;28;20075;-83
2022/06/07 02:07:12;;;;;;;10.52;4.43;;;;;;;10.91;100.00;100992.03;5047145;28;20052;-82
2022/06/07 02:09:42;;;;;;;14.23;5.72;;;;;;;10.83;100.00;100993.13;5046135;28;20049;-82
2022/06/07 02:12:09;;;;;;;10.93;4.30;;;;;;;10.86;100.00;100993.97;5053697;28;20045;-82
2022/06/07 02:14:36;;;;;;;14.75;5.18;;;;;;;10.82;100.00;101009.78;5046235;28;20106;-83
2022/06/07 02:17:04;;;;;;;12.70;4.53;;;;;;;10.94;100.00;101016.38;5046621;28;20056;-82
2022/06/07 02:19:30;;;;;;;11.57;4.90;;;;;;;10.86;100.00;100999.19;5040440;28;20045;-82
2022/06/07 02:21:57;;;;;;;12.57;5.13;;;;;;;10.76;100.00;100970.69;5049520;28;20556;-82
2022/06/07 02:24:24;;;;;;;10.88;5.65;;;;;;;10.68;100.00;101009.41;5046361;28;20083;-82
2022/06/07 02:26:55;;;;;;;13.23;6.15;;;;;;;10.80;100.00;100985.41;5046942;28;20049;-82
2022/06/07 02:29:31;;;;;;;13.40;5.43;;;;;;;10.82;100.00;100986.19;5047425;28;20048;-82
2022/06/07 02:32:21;;;;;;;15.27;6.15;;;;;;;10.78;100.00;101002.94;5048348;28;20048;-82
2022/06/07 02:34:53;;;;;;;13.95;4.93;;;;;;;10.87;100.00;100993.91;5049295;28;20063;-81
2022/06/07 02:37:21;;;;;;;14.95;5.55;;;;;;;10.83;100.00;100971.34;5055721;28;20053;-82
2022/06/07 02:39:49;;;;;;;12.60;5.28;;;;;;;10.89;100.00;100997.34;5044810;28;20404;-82
2022/06/07 02:42:20;;;;;;;10.93;4.35;;;;;;;10.74;100.00;100972.50;5046759;28;20479;-82
2022/06/07 02:44:47;;;;;;;11.55;5.13;;;;;;;10.70;100.00;100981.38;5048332;28;20049;-83
2022/06/07 02:47:13;;;;;;;14.02;5.07;;;;;;;10.86;100.00;101001.81;5049393;28;20053;-83
2022/06/07 02:49:40;;;;;;;10.85;4.47;;;;;;;10.95;100.00;100991.88;5047431;28;20407;-83
2022/06/07 02:52:08;;;;;;;14.93;5.35;;;;;;;10.89;100.00;100984.22;5046776;28;20056;-83
2022/06/07 02:54:36;;;;;;;12.98;5.55;;;;;;;10.87;100.00;100987.78;5044718;28;20052;-83
2022/06/07 02:57:04;;;;;;;13.10;5.20;;;;;;;10.78;100.00;100978.50;5044453;28;20049;-83
2022/06/07 02:59:31;;;;;;;9.48;4.18;;;;;;;10.90;100.00;100971.97;5046341;28;20045;-83
2022/06/07 03:01:58;;;;;;;14.00;5.20;;;;;;;10.95;100.00;100972.69;5047589;28;20094;-83
2022/06/07 03:04:24;;;;;;;10.02;4.40;;;;;;;11.06;100.00;100980.16;5045994;28;20515;-83
2022/06/07 03:06:51;;;;;;;11.77;4.38;;;;;;;10.69;100.00;100963.94;5045777;28;20045;-83
2022/06/07 03:09:19;;;;;;;14.48;6.43;;;;;;;10.70;100.00;100968.28;5047682;28;20491;-83
2022/06/07 03:11:46;;;;;;;14.60;6.00;;;;;;;10.78;100.00;100966.28;5052374;28;20041;-82
2022/06/07 03:14:12;;;;;;;8.80;3.60;;;;;;;10.73;100.00;100942.00;5046010;28;20049;-83
2022/06/07 03:16:39;;;;;;;12.82;4.72;;;;;;;10.96;100.00;100988.34;5047400;28;20570;-83
2022/06/07 03:19:06;;;;;;;13.25;4.55;;;;;;;10.71;100.00;100956.03;5043621;28;20048;-84
2022/06/07 03:21:33;;;;;;;10.80;4.57;;;;;;;10.48;100.00;100928.88;5043702;28;20049;-83
2022/06/07 03:24:00;;;;;;;11.82;5.03;;;;;;;10.81;100.00;100963.53;5044704;28;20044;-83
2022/06/07 03:26:26;;;;;;;13.48;4.68;;;;;;;10.71;100.00;100958.66;5048292;28;20045;-83
2022/06/07 03:28:53;;;;;;;14.68;5.35;;;;;;;10.93;100.00;100979.75;5051758;28;20044;-83
2022/06/07 03:31:20;;;;;;;9.52;4.05;;;;;;;10.91;100.00;100982.41;5048130;28;20526;-83
2022/06/07 03:33:48;;;;;;;11.30;4.93;;;;;;;10.85;100.00;100979.16;5046113;28;20053;-83
2022/06/07 03:36:18;;;;;;;9.55;4.38;;;;;;;10.79;100.00;100994.16;5046200;28;20053;-83
2022/06/07 03:38:46;;;;;;;10.57;4.88;;;;;;;10.91;100.00;101000.75;5049588;28;20055;-83
2022/06/07 03:41:18;;;;;;;10.20;4.20;;;;;;;10.75;100.00;100955.91;5043527;28;20056;-82
2022/06/07 03:43:45;;;;;;;11.23;4.22;;;;;;;10.92;100.00;100991.97;5047025;28;20068;-83
2022/06/07 03:46:17;;;;;;;12.07;5.30;;;;;;;10.87;100.00;100993.91;5043680;28;20049;-83
2022/06/07 03:48:45;;;;;;;10.70;4.68;;;;;;;10.95;100.00;100980.53;5042002;28;20475;-83
2022/06/07 03:51:13;;;;;;;10.07;4.75;;;;;;;10.71;100.00;100958.66;5040877;28;20052;-83
2022/06/07 03:53:41;;;;;;;11.35;4.63;;;;;;;10.69;100.00;100955.25;5046884;28;20048;-83
2022/06/07 03:56:08;;;;;;;14.43;5.47;;;;;;;11.13;100.00;100985.09;5051726;28;20056;-83
2022/06/07 03:58:38;;;;;;;11.68;4.88;;;;;;;10.87;100.00;100953.75;5051393;28;20136;-83
2022/06/07 04:01:08;;;;;;;13.05;4.68;;;;;;;10.77;100.00;100932.28;5052297;28;20041;-83
2022/06/07 04:03:42;;;;;;;10.50;4.40;;;;;;;10.91;100.00;100950.13;5051555;28;20049;-83
2022/06/07 04:06:30;;;;;;;9.35;4.22;;;;;;;11.17;100.00;100986.72;5047875;28;20144;-83
2022/06/07 04:08:57;;;;;;;12.75;5.00;;;;;;;11.09;100.00;100985.28;5050997;28;20055;-83
2022/06/07 04:11:27;;;;;;;10.35;4.10;;;;;;;11.23;100.00;100971.69;5051031;28;20045;-83
2022/06/07 04:13:55;;;;;;;10.63;5.53;;;;;;;11.28;100.00;100986.34;5051103;28;20080;-83
2022/06/07 04:16:25;;;;;;;17.45;4.97;;;;;;;11.65;100.00;100953.50;5051127;28;20065;-83
2022/06/07 04:18:53;;;;;;;13.80;5.10;;;;;;;11.99;100.00;100990.69;5050889;28;20699;-83
2022/06/07 04:21:22;;;;;;;10.88;5.75;;;;;;;12.28;100.00;100987.75;5061814;28;20044;-83
2022/06/07 04:23:49;;;;;;;13.02;4.32;;;;;;;12.64;100.00;100981.03;5053697;28;20045;-84
2022/06/07 04:26:23;;;;;;;8.98;3.83;;;;;;;12.78;100.00;100969.94;5050604;28;20049;-82
2022/06/07 04:28:50;;;;;;;10.48;3.50;;;;;;;13.24;100.00;100966.16;5051058;28;20057;-83
2022/06/07 04:31:20;;;;;;;9.63;3.92;;;;;;;13.60;100.00;100969.84;5052034;28;20052;-84
2022/06/07 04:33:48;;;;;;;11.25;3.92;;;;;;;14.09;100.00;100977.19;5051535;28;20406;-84
2022/06/07 04:36:19;;;;;;;14.00;4.00;;;;;;;13.47;100.00;100965.16;5044165;28;20053;-84
2022/06/07 04:38:47;;;;;;;10.60;3.20;;;;;;;13.66;100.00;100980.91;5050721;28;20056;-84
2022/06/07 04:41:16;;;;;;;11.68;3.95;;;;;;;13.14;100.00;100970.13;5051562;28;20041;-83
2022/06/07 04:43:51;;;;;;;8.55;3.75;;;;;;;13.65;100.00;100978.34;5050943;28;20064;-84
2022/06/07 04:46:19;;;;;;;11.07;3.95;;;;;;;13.84;100.00;100979.19;5050731;28;20122;-83
2022/06/07 04:48:47;;;;;;;9.57;3.95;;;;;;;13.65;100.00;100981.84;5050630;28;20087;-83
2022/06/07 04:51:20;;;;;;;13.02;4.22;;;;;;;13.30;100.00;100968.50;5050081;28;20190;-83
2022/06/07 04:53:48;;;;;;;9.63;4.25;;;;;;;13.07;100.00;100955.53;5050637;28;20551;-83
2022/06/07 04:56:21;;;;;;;9.75;3.40;;;;;;;13.05;100.00;100954.72;5050755;28;20053;-83
2022/06/07 04:58:48;;;;;;;;;;;;;;;12.78;100.00;100977.81;5052920;28;20049;-83
2022/06/07 05:01:36;;;;;;;11.15;3.90;;;;;;;12.75;100.00;100980.59;5049902;28;19925;-83
2022/06/07 05:04:04;;;;;;;10.50;4.00;;;;;;;12.54;100.00;100977.97;5049935;28;20056;-83
2022/06/07 05:06:34;;;;;;;10.02;3.83;;;;;;;12.65;100.00;100973.09;5050256;28;20049;-83
2022/06/07 05:09:17;;;;;;;8.27;3.35;;;;;;;12.46;100.00;100980.03;5055805;28;20461;-83
2022/06/07 05:11:49;;;;;;;8.93;3.72;;;;;;;11.92;100.00;100920.09;5055914;28;20045;-83
2022/06/07 05:14:16;;;;;;;10.77;3.22;;;;;;;12.44;100.00;100966.97;5054564;28;20051;-83
2022/06/07 05:16:43;;;;;;;12.23;4.57;;;;;;;12.17;100.00;100924.34;5053896;28;20052;-83
2022/06/07 05:19:12;;;;;;;10.40;3.40;;;;;;;12.29;100.00;100905.47;5054595;28;20135;-83
2022/06/07 05:21:39;;;;;;;9.75;3.42;;;;;;;12.75;100.00;100970.94;5055537;28;20438;-83
2022/06/07 05:24:07;;;;;;;8.93;3.08;;;;;;;12.91;100.00;100977.25;5054922;28;20183;-83
2022/06/07 05:26:48;;;;;;;10.65;3.67;;;;;;;12.37;100.00;100938.41;5066631;28;20414;-83
2022/06/07 05:29:29;;;;;;;10.50;3.92;;;;;;;12.56;100.00;100975.28;5068184;28;20057;-83
2022/06/07 05:31:56;;;;;;;11.85;3.80;;;;;;;12.53;100.00;100950.81;5054194;28;20053;-82
2022/06/07 05:34:23;;;;;;;9.73;3.42;;;;;;;12.56;100.00;100956.88;5054738;28;20077;-82
2022/06/07 05:36:50;;;;;;;11.88;3.40;;;;;;;12.88;100.00;100966.00;5054688;28;20055;-83
2022/06/07 05:39:21;;;;;;;11.00;3.25;;;;;;;12.89;100.00;100954.56;5054382;28;20076;-82
2022/06/07 05:41:48;;;;;;;10.15;4.60;;;;;;;12.56;100.00;100946.38;5054038;28;20045;-82
2022/06/07 05:44:14;;;;;;;12.18;3.53;;;;;;;12.57;100.00;100924.44;5054105;28;20056;-83
2022/06/07 05:46:42;;;;;;;9.68;3.88;;;;;;;12.60;100.00;100953.19;5053777;28;20056;-82
2022/06/07 05:49:10;;;;;;;11.35;4.07;;;;;;;12.57;100.00;100948.94;5054545;28;20051;-83
2022/06/07 05:51:38;;;;;;;9.27;3.60;;;;;;;12.97;100.00;100960.34;5045889;28;20041;-83
2022/06/07 05:54:06;;;;;;;11.07;3.85;;;;;;;12.63;100.00;100953.94;5044977;28;20176;-82
2022/06/07 05:56:33;;;;;;;9.68;3.53;;;;;;;12.83;100.00;100941.69;5053168;28;20049;-82
2022/06/07 05:59:01;;;;;;;8.88;3.20;;;;;;;13.22;100.00;100956.63;5048110;28;20049;-83
2022/06/07 06:01:27;;;;;;;9.38;4.00;;;;;;;12.96;100.00;100921.84;5045051;28;20574;-83
2022/06/07 06:03:55;;;;;;;10.30;3.40;;;;;;;12.89;100.00;100938.78;5050242;28;20052;-80
2022/06/07 06:06:26;;;;;;;9.90;3.35;;;;;;;12.91;100.00;100956.22;5044109;28;20053;-81
2022/06/07 06:11:38;;;;;;;11.27;4.20;;;;;;;12.78;100.00;100938.41;5046848;28;20679;-81
2022/06/07 06:14:04;;;;;;;9.07;3.22;;;;;;;13.36;100.00;100953.41;5048760;28;20060;-81
2022/06/07 06:16:31;;;;;;;8.20;3.53;;;;;;;13.35;100.00;100930.66;5045849;28;20047;-81
2022/06/07 06:18:59;;;;;;;12.25;3.88;;;;;;;13.50;100.00;100931.72;5043658;28;20049;-82
2022/06/07 06:21:28;;;;;;;9.35;4.10;;;;;;;13.39;100.00;100927.81;5049564;28;20141;-81
2022/06/07 06:23:59;;;;;;;12.65;3.15;;;;;;;13.09;100.00;100954.53;5047300;28;20059;-81
2022/06/07 06:26:29;;;;;;;8.77;3.30;;;;;;;13.62;100.00;100958.31;5043696;28;20525;-81
2022/06/07 06:28:57;;;;;;;10.70;3.55;;;;;;;13.59;100.00;100954.97;5045677;28;20045;-81
2022/06/07 06:31:24;;;;;;;13.13;3.40;;;;;;;13.41;100.00;100943.53;5047757;28;20041;-81
2022/06/07 06:33:53;;;;;;;9.18;3.33;;;;;;;13.70;100.00;100954.47;5062714;28;20128;-81
2022/06/07 06:36:23;;;;;;;8.80;3.28;;;;;;;13.93;100.00;100948.09;5041435;28;20404;-81
2022/06/07 06:38:50;;;;;;;10.35;3.55;;;;;;;13.48;100.00;100956.31;5049350;28;20099;-81
2022/06/07 06:41:26;;;;;;;8.18;3.42;;;;;;;13.81;100.00;100950.41;5047614;28;20414;-81
2022/06/07 06:43:55;;;;;;;7.88;2.88;;;;;;;13.71;100.00;100943.03;5044812;28;20053;-81
2022/06/07 06:46:31;;;;;;;8.90;2.90;;;;;;;13.62;100.00;100925.91;5045065;28;20045;-80
2022/06/07 06:48:58;;;;;;;9.60;3.80;;;;;;;13.70;100.00;100946.56;5046398;28;20048;-80
2022/06/07 06:51:27;;;;;;;8.32;3.38;;;;;;;13.57;100.00;100944.50;5068561;28;20378;-80
2022/06/07 06:53:58;;;;;;;9.98;3.35;;;;;;;13.32;100.00;100943.97;5052294;28;20049;-83
2022/06/07 06:56:28;;;;;;;9.90;3.22;;;;;;;13.43;100.00;100946.94;5052699;28;20057;-80
2022/06/07 06:58:55;;;;;;;7.82;3.05;;;;;;;13.74;100.00;100942.84;5052383;28;20048;-80
2022/06/07 07:01:26;;;;;;;7.63;3.28;;;;;;;13.78;100.00;100947.06;5052328;28;20044;-81
2022/06/07 07:03:54;;;;;;;7.85;3.40;;;;;;;13.55;100.00;100933.22;5045598;28;20053;-81
2022/06/07 07:06:22;;;;;;;8.60;3.85;;;;;;;13.56;100.00;100944.59;5048789;28;20079;-80
2022/06/07 07:08:49;;;;;;;12.70;4.40;;;;;;;13.95;100.00;100941.84;5046295;28;20060;-81
2022/06/07 07:11:29;;;;;;;10.25;3.60;;;;;;;13.93;100.00;100940.22;5048027;28;20059;-80
2022/06/07 07:13:57;;;;;;;9.85;3.83;;;;;;;14.00;100.00;100924.03;5060728;28;20399;-81
2022/06/07 07:16:27;;;;;;;8.70;3.67;;;;;;;14.01;100.00;100928.38;5047941;28;20052;-81
2022/06/07 07:18:54;;;;;;;11.20;3.80;;;;;;;14.07;100.00;100913.22;5046961;28;20076;-81
2022/06/07 07:21:24;;;;;;;10.20;3.38;;;;;;;13.86;100.00;100921.22;5051295;28;20068;-81
2022/06/07 07:23:51;;;;;;;9.00;3.38;;;;;;;14.01;100.00;100924.91;5055730;28;20053;-81
2022/06/07 07:26:24;;;;;;;8.48;3.05;;;;;;;14.16;100.00;100923.28;5052458;28;20072;-80
2022/06/07 07:28:54;;;;;;;10.10;3.35;;;;;;;14.08;100.00;100920.16;5049432;28;20045;-81
2022/06/07 07:31:24;;;;;;;7.45;2.78;;;;;;;14.12;100.00;100901.53;5049217;28;20049;-81
2022/06/07 07:33:51;;;;;;;8.05;2.92;;;;;;;14.60;100.00;100922.84;5053221;28;20061;-82
2022/06/07 07:36:19;;;;;;;7.90;3.03;;;;;;;14.36;100.00;100922.28;5028222;28;20052;-82
2022/06/07 07:38:46;;;;;;;7.90;3.08;;;;;;;14.18;100.00;100911.75;5035978;28;20057;-83
2022/06/07 07:41:25;;;;;;;7.40;3.45;;;;;;;14.07;100.00;100921.97;5048653;28;20059;-84
2022/06/07 07:43:54;;;;;;;8.32;3.47;;;;;;;14.31;100.00;100921.69;5051716;28;20467;-83
2022/06/07 07:46:24;;;;;;;8.57;2.97;;;;;;;14.28;100.00;100903.41;5050725;28;20407;-81
2022/06/07 07:48:51;;;;;;;7.47;3.22;;;;;;;14.66;100.00;100911.13;5050851;28;20072;-82
2022/06/07 07:51:23;;;;;;;7.25;2.85;;;;;;;14.43;100.00;100907.91;5050098;28;20068;-81
2022/06/07 07:53:56;;;;;;;8.05;3.03;;;;;;;14.49;100.00;100898.81;5052470;28;20080;-82
2022/06/07 07:56:23;;;;;;;10.43;3.53;;;;;;;14.46;100.00;100909.50;5045726;28;20056;-82
2022/06/07 07:58:52;;;;;;;10.52;3.55;;;;;;;14.48;100.00;100899.75;5047201;28;20294;-82
2022/06/07 08:01:23;;;;;;;9.93;3.35;;;;;;;14.46;100.00;100912.97;5048858;28;20045;-82
2022/06/07 08:03:52;;;;;;;11.10;3.47;;;;;;;14.69;100.00;100909.19;5052059;28;20053;-82
2022/06/07 08:06:23;;;;;;;8.45;2.72;;;;;;;14.75;100.00;100892.19;5050895;28;20064;-82
2022/06/07 08:08:53;;;;;;;65.13;13.82;;;;;;;14.86;100.00;100905.69;5052433;28;20059;-82
2022/06/07 08:11:23;;;;;;;13.13;3.75;;;;;;;14.86;100.00;100907.47;5047287;28;20053;-82
2022/06/07 08:13:52;;;;;;;8.60;3.55;;;;;;;14.86;100.00;100905.69;5041488;28;20071;-82
2022/06/07 08:16:19;;;;;;;7.65;2.90;;;;;;;15.09;100.00;100904.47;5048136;28;20447;-82
2022/06/07 08:18:46;;;;;;;10.88;3.47;;;;;;;15.42;100.00;100897.41;5047469;28;20063;-82
2022/06/07 08:21:20;;;;;;;7.82;2.80;;;;;;;15.11;100.00;100896.47;5059108;28;20554;-82
2022/06/07 08:23:51;;;;;;;8.93;3.17;;;;;;;15.35;100.00;100891.63;5061850;28;20076;-83
2022/06/07 08:29:38;;;;;;;10.95;2.88;;;;;;;16.06;100.00;100880.63;5054377;28;20051;-83
2022/06/07 08:32:06;;;;;;;8.98;3.17;;;;;;;16.05;100.00;100888.63;5055959;28;20048;-82
2022/06/07 08:37:36;;;;;;;7.57;3.20;;;;;;;15.60;100.00;100884.97;5051139;28;20053;-82
2022/06/07 08:40:09;;;;;;;8.05;3.20;;;;;;;15.56;100.00;100881.66;5047221;28;20054;-82
2022/06/07 08:42:47;;;;;;;11.27;2.85;;;;;;;15.78;100.00;100891.06;5049030;28;20048;-82
2022/06/07 08:45:19;;;;;;;7.93;2.97;;;;;;;16.09;100.00;100890.97;5055519;28;20048;-82
2022/06/07 08:47:49;;;;;;;8.70;2.72;;;;;;;16.25;100.00;100867.16;5066281;28;20732;-82
2022/06/07 08:50:23;;;;;;;7.95;3.45;;;;;;;15.65;100.00;100875.03;5050421;28;20294;-83
2022/06/07 08:52:53;;;;;;;7.47;2.90;;;;;;;15.69;100.00;100874.78;5050269;28;20078;-82
2022/06/07 08:55:40;;;;;;;9.35;3.20;;;;;;;15.11;100.00;100846.38;5049446;28;20045;-83
2022/06/07 08:58:20;;;;;;;9.20;3.58;;;;;;;15.39;100.00;100880.00;5039215;28;20072;-82
2022/06/07 09:00:52;;;;;;;9.93;3.15;;;;;;;15.83;100.00;100862.59;5047650;28;20060;-83
2022/06/07 09:03:45;;;;;;;9.25;3.47;;;;;;;15.65;100.00;100825.75;5053851;28;20041;-83
2022/06/07 09:06:18;;;;;;;;;;;;;;;15.86;100.00;100860.63;5065761;28;20483;-83
2022/06/07 09:08:57;;;;;;;8.55;2.92;;;;;;;15.67;100.00;100852.03;5041520;28;19920;-82
2022/06/07 09:14:38;;;;;;;8.88;3.47;;;;;;;15.60;100.00;100850.69;5040905;28;20046;-83
2022/06/07 09:17:19;;;;;;;15.90;4.85;;;;;;;15.45;100.00;100849.75;5049525;28;20053;-83
2022/06/07 09:19:49;;;;;;;10.80;3.08;;;;;;;15.49;100.00;100848.66;5066369;28;20636;-82
2022/06/07 09:22:25;;;;;;;10.98;3.30;;;;;;;15.64;100.00;100858.34;5041556;28;20044;-83
2022/06/07 09:25:02;;;;;;;9.10;3.42;;;;;;;15.47;100.00;100853.16;5050041;28;20045;-82
2022/06/07 09:27:33;;;;;;;9.27;3.30;;;;;;;15.82;100.00;100856.47;5044137;28;20045;-82
2022/06/07 09:30:25;;;;;;;11.25;3.83;;;;;;;15.69;100.00;100839.63;5048133;28;21421;-82
2022/06/07 09:32:52;;;;;;;8.40;3.45;;;;;;;15.90;100.00;100837.53;5059192;28;20067;-81
2022/06/07 09:35:42;;;;;;;8.85;3.03;;;;;;;15.66;100.00;100850.34;5052500;28;20060;-82
2022/06/07 09:38:22;;;;;;;8.70;3.05;;;;;;;16.10;100.00;100831.94;5047659;28;20414;-83
2022/06/07 09:41:01;;;;;;;9.60;3.40;;;;;;;15.78;100.00;100846.19;5047295;28;20053;-83
2022/06/07 09:43:40;;;;;;;6.88;2.92;;;;;;;15.98;100.00;100842.38;5045242;28;20673;-82
2022/06/07 09:46:10;;;;;;;7.38;2.78;;;;;;;16.55;100.00;100839.00;5047124;28;20435;-82
2022/06/07 09:48:45;;;;;;;9.55;3.33;;;;;;;16.45;100.00;100831.63;5048128;28;20540;-83
2022/06/07 09:51:25;;;;;;;11.98;3.78;;;;;;;16.13;100.00;100823.00;5055060;28;20081;-82
2022/06/07 09:54:01;;;;;;;12.50;3.67;;;;;;;16.09;100.00;100832.03;5052606;28;20068;-82
2022/06/07 09:56:46;;;;;;;8.40;2.88;;;;;;;16.45;100.00;100828.97;5052755;28;20411;-82
2022/06/07 09:59:42;;;;;;;7.30;3.25;;;;;;;15.97;100.00;100824.81;5053760;28;20502;-83
2022/06/07 10:02:46;;;;;;;11.93;3.63;;;;;;;16.35;100.00;100819.91;5052060;28;20650;-82
2022/06/07 10:05:27;;;;;;;7.90;3.10;;;;;;;16.52;100.00;100813.59;5043671;28;20821;-82
2022/06/07 10:08:34;;;;;;;8.23;3.42;;;;;;;16.75;100.00;100817.47;5052124;28;20051;-83
2022/06/07 10:11:12;;;;;;;10.05;3.60;;;;;;;15.86;100.00;100817.53;5051226;28;20057;-82
2022/06/07 10:13:57;;;;;;;8.30;3.13;;;;;;;16.72;100.00;100825.59;5051085;28;20128;-83
2022/06/07 10:16:42;;;;;;;7.55;3.05;;;;;;;16.97;100.00;100822.28;5052198;28;20382;-82
2022/06/07 10:19:46;;;;;;;9.48;3.00;;;;;;;16.57;100.00;100818.59;5046873;28;20076;-82
2022/06/07 10:22:40;;;;;;;8.25;2.90;;;;;;;16.99;100.00;100811.63;5050288;28;20049;-83
2022/06/07 10:25:20;;;;;;;7.57;2.92;;;;;;;17.19;100.00;100807.69;5049709;28;20049;-83
2022/06/07 10:28:07;;;;;;;10.32;3.10;;;;;;;16.77;100.00;100798.84;5047746;28;20091;-83
2022/06/07 10:30:55;;;;;;;13.23;4.05;;;;;;;16.56;100.00;100811.63;5050459;28;20447;-82
2022/06/07 10:33:46;;;;;;;9.73;2.78;;;;;;;16.97;100.00;100813.50;5052336;28;20045;-82
2022/06/07 10:36:55;;;;;;;7.53;2.80;;;;;;;17.21;99.73;100800.50;5062948;28;20052;-82
2022/06/07 10:39:28;;;;;;;10.63;2.92;;;;;;;17.26;100.00;100796.63;5063049;28;20470;-82
2022/06/07 10:42:21;;;;;;;8.23;2.88;;;;;;;17.45;98.73;100795.41;5063350;28;20471;-83
2022/06/07 10:44:55;;;;;;;;;;;;;;;17.83;95.24;100790.22;5062571;28;20372;-83
2022/06/07 10:47:31;;;;;;;6.60;2.85;;;;;;;17.44;98.90;100786.63;5060717;28;19921;-82
2022/06/07 10:50:00;;;;;;;7.32;2.65;;;;;;;17.65;96.45;100770.25;5048576;28;20056;-83
2022/06/07 10:53:29;;;;;;;6.63;2.50;;;;;;;17.29;98.11;100755.03;5051468;28;20488;-83
2022/06/07 10:56:47;;;;;;;7.93;3.08;;;;;;;17.66;97.96;100777.28;4972870;28;20058;-83
2022/06/07 10:59:22;;;;;;;8.93;2.92;;;;;;;17.34;95.32;100769.66;5021260;28;20052;-83
2022/06/07 11:02:00;;;;;;;7.90;2.75;;;;;;;17.45;96.85;100779.53;5052230;28;20045;-82
2022/06/07 11:10:28;;;;;;;9.63;3.25;;;;;;;17.42;97.76;100766.50;5047730;28;20052;-82
2022/06/07 11:13:17;;;;;;;8.27;2.92;;;;;;;17.96;94.03;100770.91;5051388;28;20497;-82
2022/06/07 11:15:56;;;;;;;13.45;3.33;;;;;;;18.10;92.35;100767.31;5048603;28;20444;-82
2022/06/07 11:18:26;;;;;;;8.55;2.72;;;;;;;17.96;92.16;100736.47;5051104;28;20052;-82
2022/06/07 11:21:01;;;;;;;9.43;3.15;;;;;;;18.46;90.02;100758.56;5051771;28;20052;-82
2022/06/07 11:23:43;;;;;;;8.13;2.95;;;;;;;18.63;88.10;100752.09;5051634;28;20558;-82
2022/06/07 11:26:17;;;;;;;6.32;2.30;;;;;;;18.46;87.23;100744.47;5044641;28;20050;-82
2022/06/07 11:28:50;;;;;;;6.72;2.25;;;;;;;18.23;86.57;100740.81;5046034;28;20132;-83
2022/06/07 11:31:35;;;;;;;6.20;2.55;;;;;;;18.56;85.35;100748.19;5046676;28;20049;-83
2022/06/07 11:34:29;;;;;;;7.90;2.92;;;;;;;18.57;87.05;100753.38;5044049;28;20045;-83
2022/06/07 11:37:08;;;;;;;7.22;2.88;;;;;;;18.32;87.30;100750.75;5049707;28;20474;-83
2022/06/07 11:39:37;;;;;;;10.05;2.95;;;;;;;17.65;90.36;100751.72;5044966;28;21201;-83
2022/06/07 11:42:07;;;;;;;7.13;2.75;;;;;;;18.16;86.51;100746.50;5051505;28;20147;-83
2022/06/07 11:44:39;;;;;;;8.35;2.75;;;;;;;18.13;86.57;100749.41;5051913;28;20041;-83
2022/06/07 11:47:13;;;;;;;6.78;2.60;;;;;;;18.76;85.15;100744.09;5049471;28;20576;-82
2022/06/07 11:49:46;;;;;;;7.10;2.83;;;;;;;19.04;81.79;100735.03;5049528;28;20103;-82
2022/06/07 11:52:12;;;;;;;;;;;;;;;19.06;81.12;100733.09;5048006;28;20055;-82
2022/06/07 11:54:45;;;;;;;6.40;2.67;;;;;;;19.08;79.51;100738.28;5051572;28;20278;-83
2022/06/07 11:57:35;;;;;;;7.97;2.88;;;;;;;19.16;81.96;100727.97;5047980;28;20055;-83
2022/06/07 12:00:03;;;;;;;9.30;3.15;;;;;;;19.04;80.47;100729.72;5052338;28;20055;-83
2022/06/07 12:02:36;;;;;;;8.50;3.03;;;;;;;18.59;83.21;100700.22;5045327;28;20081;-83
2022/06/07 12:05:18;;;;;;;;;;;;;;;19.31;78.74;100723.31;5051266;28;20435;-83